• Join FlightAware (Why Join?)
  • Login
  • US Flag 
12:20AM EDT


 

Airport Tracker/Info


-or-


 

Live Flight TrackerFlight Track Log ✈ USC105 ✈ 25-Apr-2013 ✈ KYIP - KLCK

Flight Track Log - Related Links

Times and Time Zones

All times are in EDT time to prevent confusion due to time zone crossing. See the USC105 flight status page for this flight to view local times or setup timezone preferences in your user account.

Time Position Orientation Groundspeed Altitude Reporting Facility
EDT Latitude Longitude Course Direction KTS MPH feet Rate Location/Type
06:58AM 42.2175 -83.5581 160° South 93 107 2,200  Level Cleveland Center
06:59AM 42.2078 -83.5675 216° Southwest 101 116 2,900 1,380 Climbing FAA TRACON SMA TRACON (SMA)
06:59AM 42.1983 -83.5767 216° Southwest 109 125 3,400 1,140 Climbing FAA TRACON SMA TRACON (SMA)
07:00AM 42.1900 -83.5839 213° Southwest 113 130 3,700 1,200 Climbing FAA TRACON SMA TRACON (SMA)
07:00AM 42.1817 -83.5914 214° Southwest 115 132 4,200 1,500 Climbing FAA TRACON SMA TRACON (SMA)
07:00AM 42.1717 -83.6011 216° Southwest 116 133 4,700 1,200 Climbing FAA TRACON SMA TRACON (SMA)
07:01AM 42.1636 -83.6097 218° Southwest 116 133 5,000 300 Climbing FAA TRACON SMA TRACON (SMA)
07:01AM 42.1536 -83.6194 216° Southwest 155 178 4,900  Descending FAA TRACON SMA TRACON (SMA)
07:01AM 42.1403 -83.6331 217° Southwest 160 184 5,000 300 Climbing FAA TRACON SMA TRACON (SMA)
07:02AM 42.1258 -83.6356 187° South 161 185 5,100 -180 Climbing FAA TRACON SMA TRACON (SMA)
07:02AM 42.1114 -83.6333 173° South 171 197 4,900 -180 Descending FAA TRACON SMA TRACON (SMA)
07:02AM 42.0931 -83.6308 174° South 170 196 5,000 120 Climbing FAA TRACON SMA TRACON (SMA)
07:03AM 42.0786 -83.6283 173° South 172 198 5,000  Level FAA TRACON SMA TRACON (SMA)
07:03AM 42.0639 -83.6258 173° South 173 199 5,000  Level FAA TRACON SMA TRACON (SMA)
07:03AM 42.0461 -83.6178 161° South 174 200 5,000  Level FAA TRACON SMA TRACON (SMA)
07:04AM 41.9829 -83.4415 160° South  Level FlightAware Approximate
07:04AM 42.0317 -83.6108 160° South 178 205 5,000  Level FAA TRACON SMA TRACON (SMA)
07:04AM 42.0136 -83.6036 163° South 179 206 5,000  Level FAA TRACON SMA TRACON (SMA)
07:04AM 41.9997 -83.5983 164° South 176 203 5,000  Level FAA TRACON SMA TRACON (SMA)
07:05AM 41.9822 -83.5922 165° South 179 206 5,000 120 Level FAA TRACON SMA TRACON (SMA)
07:05AM 41.9689 -83.5872 164° South 178 205 5,100 600 Climbing FAA TRACON SMA TRACON (SMA)
07:05AM 41.9514 -83.5811 165° South 173 199 5,400 600 Climbing FAA TRACON SMA TRACON (SMA)
07:06AM 41.9378 -83.5764 166° South 171 197 5,500 420 Climbing FAA TRACON SMA TRACON (SMA)
07:06AM 41.9219 -83.5717 167° South 172 198 5,700 420 Climbing FAA TRACON SMA TRACON (SMA)
07:06AM 41.9047 -83.5656 165° South 176 203 5,800 300 Climbing FAA TRACON SMA TRACON (SMA)
07:07AM 41.8903 -83.5611 167° South 179 206 5,900 300 Climbing FAA TRACON SMA TRACON (SMA)
07:07AM 41.8722 -83.5547 165° South 179 206 6,000 420 Climbing FAA TRACON SMA TRACON (SMA)
07:07AM 41.8550 -83.5489 166° South 180 207 6,200 540 Climbing FAA TRACON SMA TRACON (SMA)
07:08AM 41.8414 -83.5436 164° South 179 206 6,400 600 Climbing FAA TRACON SMA TRACON (SMA)
07:08AM 41.8244 -83.5372 164° South 178 205 6,600 420 Climbing FAA TRACON SMA TRACON (SMA)
07:08AM 41.8072 -83.5317 166° South 176 203 6,700 420 Climbing FAA TRACON SMA TRACON (SMA)
07:09AM 41.7922 -83.5264 165° South 177 204 6,900 240 Climbing FAA TRACON SMA TRACON (SMA)
07:09AM 41.7747 -83.5214 168° South 177 204 6,900  Level FAA TRACON SMA TRACON (SMA)
07:09AM 41.7592 -83.5167 167° South 184 212 6,900  Level FAA TRACON SMA TRACON (SMA)
07:10AM 41.7431 -83.5119 168° South 186 214 6,900  Level FAA TRACON SMA TRACON (SMA)
07:10AM 41.7275 -83.5069 167° South 188 216 6,900  Level FAA TRACON SMA TRACON (SMA)
07:10AM 41.7081 -83.5014 168° South 185 213 6,900  Level FAA TRACON SMA TRACON (SMA)
07:11AM 41.6931 -83.4969 168° South 182 209 6,900  Level FAA TRACON SMA TRACON (SMA)
07:11AM 41.6742 -83.4903 165° South 182 209 6,900  Level FAA TRACON SMA TRACON (SMA)
07:11AM 41.6592 -83.4889 176° South 177 204 6,900  Level FAA TRACON SMA TRACON (SMA)
07:12AM 41.6439 -83.4828 163° South 188 216 6,900  Level FAA TRACON SMA TRACON (SMA)
07:12AM 41.6250 -83.4767 166° South 182 209 6,900  Level FAA TRACON SMA TRACON (SMA)
07:12AM 41.6103 -83.4708 163° South 182 209 6,900  Level FAA TRACON SMA TRACON (SMA)
07:13AM 41.5953 -83.4656 165° South 182 209 6,900  Level FAA TRACON SMA TRACON (SMA)
07:13AM 41.5800 -83.4611 168° South 181 208 6,900  Level FAA TRACON SMA TRACON (SMA)
07:13AM 41.5611 -83.4553 167° South 181 208 6,900  Level FAA TRACON SMA TRACON (SMA)
07:14AM 41.5461 -83.4506 167° South 182 209 6,900  Level FAA TRACON SMA TRACON (SMA)
07:14AM 41.5308 -83.4458 167° South 181 208 6,900  Level FAA TRACON SMA TRACON (SMA)
07:14AM 41.5119 -83.4397 166° South 181 208 6,900  Level FAA TRACON SMA TRACON (SMA)
07:15AM 41.4969 -83.4350 167° South 181 208 6,900  Level FAA TRACON SMA TRACON (SMA)
07:15AM 41.4781 -83.4289 166° South 181 208 6,900  Level FAA TRACON SMA TRACON (SMA)
07:15AM 41.4631 -83.4236 165° South 181 208 6,900  Level FAA TRACON SMA TRACON (SMA)
07:16AM 41.4481 -83.4186 166° South 181 208 6,900  Level FAA TRACON SMA TRACON (SMA)
07:16AM 41.4289 -83.4131 168° South 180 207 6,900  Level FAA TRACON SMA TRACON (SMA)
07:16AM 41.4139 -83.4083 167° South 181 208 6,900  Level FAA TRACON SMA TRACON (SMA)
07:17AM 41.3986 -83.4039 168° South 181 208 6,900  Level FAA TRACON SMA TRACON (SMA)
07:17AM 41.3836 -83.3997 168° South 180 207 6,900  Level FAA TRACON SMA TRACON (SMA)
07:17AM 41.3647 -83.3939 167° South 181 208 6,900  Level FAA TRACON SMA TRACON (SMA)
07:18AM 41.3497 -83.3892 167° South 180 207 6,900  Level FAA TRACON SMA TRACON (SMA)
07:18AM 41.3383 -83.3853 166° South 180 207 6,900  Level FAA TRACON SMA TRACON (SMA)
07:20AM 41.2793 -83.3616 163° South  Level FlightAware Approximate
07:27AM 40.9383 -83.2299 166° South  Level FlightAware Approximate
07:28AM 40.8891 -83.2139 166° South  Level FlightAware Approximate
07:28AM 40.8358 -83.2314 166° South 188 216 7,000  Level Indianapolis Center
07:29AM 40.8399 -83.1979 166° South  Level FlightAware Approximate
07:29AM 40.7858 -83.2161 167° South 185 213 7,000  Level Indianapolis Center
07:30AM 40.7907 -83.1819 166° South  Level FlightAware Approximate
07:30AM 40.7375 -83.2022 168° South 184 212 7,000  Level Indianapolis Center
07:31AM 40.7415 -83.1660 166° South  Level FlightAware Approximate
07:31AM 40.6861 -83.1858 166° South 187 215 7,000  Level Indianapolis Center
07:32AM 40.6923 -83.1501 166° South  Level FlightAware Approximate
07:32AM 40.6353 -83.1700 167° South 187 215 7,000  Level Indianapolis Center
07:33AM 40.6431 -83.1342 166° South  Level FlightAware Approximate
07:33AM 40.5819 -83.1550 168° South 186 214 7,000  Level Indianapolis Center
07:34AM 40.5303 -83.1392 167° South 187 215 7,000  Level Indianapolis Center
07:35AM 40.4856 -83.1114 155° Southeast 190 219 7,000  Level Indianapolis Center
07:36AM 40.4425 -83.0592 137° Southeast 242 278 7,000 -120 Level Indianapolis Center
07:37AM 40.3967 -83.0017 136° Southeast 200 230 6,800 -360 Descending Indianapolis Center
07:38AM 40.3536 -82.9492 137° Southeast 206 237 6,300 -900 Descending Indianapolis Center
07:39AM 40.3061 -82.8944 139° Southeast 217 250 5,000 -1,080 Descending Indianapolis Center
07:39AM 40.2908 -82.8858 157° South 218 251 4,900 -900 Descending Indianapolis Center
07:40AM 40.2547 -82.8625 154° Southeast 214 246 4,100 -600 Descending Indianapolis Center
07:41AM 40.2067 -82.8325 155° Southeast 229 264 4,000 -60 Descending Indianapolis Center
07:42AM 40.1514 -82.8161 167° South 190 219 4,000  Level Indianapolis Center
07:43AM 40.1011 -82.8056 171° South 183 211 4,000  Level Indianapolis Center
07:44AM 40.0497 -82.8033 178° South 182 209 4,000  Level Indianapolis Center
07:45AM 39.9992 -82.8014 178° South 181 208 4,000 -180 Level Indianapolis Center
07:46AM 39.9519 -82.8036 182° South 173 199 3,700 -540 Descending Indianapolis Center
07:47AM 39.9092 -82.8311 206° Southwest 169 194 3,000 -840 Descending Indianapolis Center
07:48AM 39.8681 -82.8628 211° Southwest 170 196 2,100 -900 Descending Indianapolis Center
07:49AM 39.8542 -82.8769 218° Southwest 174 200 1,900 -1,080 Descending Indianapolis Center
07:49AM 39.8317 -82.9036 222° Southwest 156 180 1,000 -600 Descending Indianapolis Center
07:50AM 39.8069 -82.9356 225° Southwest 151 174 900 -120 Descending Indianapolis Center
07:52AM 39.8000 -82.9167 186° South  Level FlightAware Approximate